createdAt,value
2023-08-18T00:02:18.626Z,100.00
2023-08-18T00:04:47.234Z,100.00
2023-08-18T00:07:15.580Z,100.00
2023-08-18T00:09:44.871Z,100.00
2023-08-18T00:12:12.720Z,100.00
2023-08-18T00:14:40.296Z,100.00
2023-08-18T00:17:07.786Z,100.00
2023-08-18T00:19:35.466Z,100.00
2023-08-18T00:22:02.947Z,100.00
2023-08-18T00:24:30.486Z,100.00
2023-08-18T00:26:58.257Z,100.00
2023-08-18T00:29:25.706Z,100.00
2023-08-18T00:31:53.728Z,100.00
2023-08-18T00:34:21.552Z,100.00
2023-08-18T00:36:49.107Z,100.00
2023-08-18T00:39:16.740Z,100.00
2023-08-18T00:41:44.562Z,100.00
2023-08-18T00:44:12.143Z,100.00
2023-08-18T00:46:39.819Z,100.00
2023-08-18T00:49:09.386Z,100.00
2023-08-18T00:51:40.848Z,100.00
2023-08-18T00:54:09.389Z,100.00
2023-08-18T00:56:37.119Z,100.00
2023-08-18T00:59:07.701Z,100.00
2023-08-18T01:01:37.421Z,100.00
2023-08-18T01:04:06.053Z,100.00
2023-08-18T01:06:33.716Z,100.00
2023-08-18T01:09:01.978Z,100.00
2023-08-18T01:11:43.704Z,100.00
2023-08-18T01:14:33.746Z,100.00
2023-08-18T01:17:11.314Z,100.00
2023-08-18T01:19:41.551Z,100.00
2023-08-18T01:22:13.274Z,100.00
2023-08-18T01:24:42.193Z,100.00
2023-08-18T01:27:09.854Z,100.00
2023-08-18T01:29:37.746Z,100.00
2023-08-18T01:32:08.033Z,100.00
2023-08-18T01:34:41.824Z,100.00
2023-08-18T01:37:10.890Z,100.00
2023-08-18T01:39:38.833Z,100.00
2023-08-18T01:42:06.596Z,100.00
2023-08-18T01:44:34.370Z,100.00
2023-08-18T01:47:01.960Z,100.00
2023-08-18T01:49:29.521Z,100.00
2023-08-18T01:51:57.417Z,100.00
2023-08-18T01:54:26.012Z,100.00
2023-08-18T01:56:53.989Z,100.00
2023-08-18T01:59:22.134Z,100.00
2023-08-18T02:01:49.830Z,100.00
2023-08-18T02:04:17.685Z,100.00
2023-08-18T02:06:45.352Z,100.00
2023-08-18T02:09:12.784Z,100.00
2023-08-18T02:11:41.333Z,100.00
2023-08-18T02:14:08.858Z,100.00
2023-08-18T02:16:36.337Z,100.00
2023-08-18T02:19:04.713Z,100.00
2023-08-18T02:21:32.452Z,100.00
2023-08-18T02:23:59.887Z,100.00
2023-08-18T02:26:27.731Z,100.00
2023-08-18T02:28:55.182Z,100.00
2023-08-18T02:31:22.744Z,100.00
2023-08-18T02:33:51.318Z,100.00
2023-08-18T02:36:18.855Z,100.00
2023-08-18T02:38:46.741Z,100.00
2023-08-18T02:41:15.774Z,100.00
2023-08-18T02:43:47.431Z,100.00
2023-08-18T02:46:15.809Z,100.00
2023-08-18T02:48:43.386Z,100.00
2023-08-18T02:51:11.110Z,100.00
2023-08-18T02:53:39.096Z,100.00
2023-08-18T02:56:06.923Z,100.00
2023-08-18T02:58:34.985Z,100.00
2023-08-18T03:01:06.259Z,100.00
2023-08-18T03:03:37.308Z,100.00
2023-08-18T03:06:10.052Z,100.00
2023-08-18T03:08:38.048Z,100.00
2023-08-18T03:11:06.524Z,100.00
2023-08-18T03:13:34.563Z,100.00
2023-08-18T03:16:02.325Z,100.00
2023-08-18T03:18:30.122Z,100.00
2023-08-18T03:21:00.470Z,100.00
2023-08-18T03:23:28.631Z,100.00
2023-08-18T03:26:05.565Z,100.00
2023-08-18T03:28:37.189Z,100.00
2023-08-18T03:31:07.053Z,100.00
2023-08-18T03:33:35.946Z,100.00
2023-08-18T03:36:04.313Z,100.00
2023-08-18T03:38:32.260Z,100.00
2023-08-18T03:41:08.190Z,100.00
2023-08-18T03:43:36.428Z,100.00
2023-08-18T03:46:17.268Z,100.00
2023-08-18T03:48:45.166Z,100.00
2023-08-18T03:51:12.891Z,100.00
2023-08-18T03:53:40.555Z,100.00
2023-08-18T03:56:08.317Z,100.00
2023-08-18T03:58:35.792Z,100.00
2023-08-18T04:01:08.958Z,100.00
2023-08-18T04:03:39.479Z,100.00
2023-08-18T04:06:07.460Z,100.00
2023-08-18T04:08:44.185Z,100.00
2023-08-18T04:11:12.951Z,100.00
2023-08-18T04:13:41.073Z,100.00
2023-08-18T04:16:08.989Z,100.00
2023-08-18T04:18:37.144Z,100.00
2023-08-18T04:21:04.680Z,100.00
2023-08-18T04:23:32.662Z,100.00
2023-08-18T04:26:01.903Z,100.00
2023-08-18T04:28:31.063Z,100.00
2023-08-18T04:31:00.381Z,100.00
2023-08-18T04:33:28.359Z,100.00
2023-08-18T04:35:56.349Z,100.00
2023-08-18T04:38:23.927Z,100.00
2023-08-18T04:41:02.755Z,100.00
2023-08-18T04:43:31.822Z,100.00
2023-08-18T04:45:59.644Z,100.00
2023-08-18T04:48:27.429Z,100.00
2023-08-18T04:50:55.103Z,100.00
2023-08-18T04:53:23.062Z,100.00
2023-08-18T04:55:50.764Z,100.00
2023-08-18T04:58:18.758Z,100.00
2023-08-18T05:00:47.539Z,100.00
2023-08-18T05:03:15.492Z,100.00
2023-08-18T05:05:59.823Z,100.00
2023-08-18T05:08:29.083Z,100.00
2023-08-18T05:10:58.914Z,100.00
2023-08-18T05:13:26.733Z,100.00
2023-08-18T05:15:54.267Z,100.00
2023-08-18T05:18:22.518Z,100.00
2023-08-18T05:20:50.432Z,100.00
2023-08-18T05:23:18.185Z,100.00
2023-08-18T05:25:49.470Z,100.00
2023-08-18T05:28:17.383Z,100.00
2023-08-18T05:30:46.689Z,100.00
2023-08-18T05:33:15.051Z,100.00
2023-08-18T05:35:43.605Z,100.00
2023-08-18T05:38:14.806Z,100.00
2023-08-18T05:40:47.220Z,100.00
2023-08-18T05:43:16.298Z,100.00
2023-08-18T05:45:47.605Z,100.00
2023-08-18T05:48:15.603Z,100.00
2023-08-18T05:50:43.179Z,100.00
2023-08-18T05:53:10.690Z,100.00
2023-08-18T05:55:38.549Z,100.00
2023-08-18T05:58:06.100Z,100.00
2023-08-18T06:00:33.708Z,100.00
2023-08-18T06:03:01.571Z,100.00
2023-08-18T06:05:29.895Z,100.00
2023-08-18T06:07:58.074Z,100.00
2023-08-18T06:10:26.027Z,100.00
2023-08-18T06:12:53.768Z,100.00
2023-08-18T06:15:22.377Z,100.00
2023-08-18T06:17:50.582Z,100.00
2023-08-18T06:20:18.274Z,100.00
2023-08-18T06:22:45.803Z,100.00
2023-08-18T06:25:13.840Z,100.00
2023-08-18T06:27:41.873Z,100.00
2023-08-18T06:30:09.740Z,100.00
2023-08-18T06:32:37.979Z,100.00
2023-08-18T06:35:06.051Z,100.00
2023-08-18T06:37:33.518Z,100.00
2023-08-18T06:40:01.453Z,100.00
2023-08-18T06:42:29.420Z,100.00
2023-08-18T06:44:57.112Z,100.00
2023-08-18T06:47:24.909Z,100.00
2023-08-18T06:49:52.446Z,100.00
2023-08-18T06:52:19.907Z,100.00
2023-08-18T06:54:48.546Z,100.00
2023-08-18T06:57:16.189Z,100.00
2023-08-18T06:59:43.655Z,100.00
2023-08-18T07:02:11.507Z,100.00
2023-08-18T07:04:39.011Z,100.00
2023-08-18T07:07:06.628Z,100.00
2023-08-18T07:09:34.412Z,100.00
2023-08-18T07:12:01.910Z,100.00
2023-08-18T07:14:32.081Z,100.00
2023-08-18T07:17:02.939Z,100.00
2023-08-18T07:19:30.512Z,100.00
2023-08-18T07:21:58.418Z,100.00
2023-08-18T07:24:29.311Z,100.00
2023-08-18T07:26:57.219Z,100.00
2023-08-18T07:29:24.666Z,100.00
2023-08-18T07:31:52.446Z,100.00
2023-08-18T07:34:19.942Z,100.00
2023-08-18T07:36:47.710Z,100.00
2023-08-18T07:39:15.479Z,100.00
2023-08-18T07:41:42.920Z,100.00
2023-08-18T07:44:13.107Z,100.00
2023-08-18T07:46:40.949Z,100.00
2023-08-18T07:49:08.479Z,100.00
2023-08-18T07:51:36.150Z,100.00
2023-08-18T07:54:04.617Z,100.00
2023-08-18T07:56:32.151Z,100.00
2023-08-18T07:58:59.708Z,100.00
2023-08-18T08:01:28.822Z,100.00
2023-08-18T08:03:56.732Z,100.00
2023-08-18T08:06:24.358Z,100.00
2023-08-18T08:08:51.855Z,100.00
2023-08-18T08:11:19.691Z,100.00
2023-08-18T08:13:47.132Z,100.00
2023-08-18T08:16:14.706Z,100.00
2023-08-18T08:18:42.436Z,100.00
2023-08-18T08:21:09.849Z,100.00
2023-08-18T08:23:37.315Z,100.00
2023-08-18T08:26:05.108Z,100.00
2023-08-18T08:28:32.702Z,100.00
2023-08-18T08:31:05.850Z,100.00
2023-08-18T08:33:34.686Z,100.00
2023-08-18T08:36:02.156Z,100.00
2023-08-18T08:38:29.600Z,100.00
2023-08-18T08:41:00.645Z,100.00
2023-08-18T08:43:28.564Z,100.00
2023-08-18T08:45:59.331Z,100.00
2023-08-18T08:48:35.878Z,100.00
2023-08-18T08:51:07.236Z,100.00
2023-08-18T08:53:47.374Z,100.00
2023-08-18T08:56:17.953Z,100.00
2023-08-18T08:58:47.195Z,100.00
2023-08-18T09:01:14.745Z,100.00
2023-08-18T09:03:46.325Z,100.00
2023-08-18T09:06:14.339Z,100.00
2023-08-18T09:08:42.859Z,100.00
2023-08-18T09:11:10.990Z,99.57
2023-08-18T09:13:40.693Z,99.56
2023-08-18T09:16:08.489Z,100.00
2023-08-18T09:18:36.083Z,100.00
2023-08-18T09:21:07.528Z,96.27
2023-08-18T09:23:35.270Z,100.00
2023-08-18T09:26:02.970Z,100.00
2023-08-18T09:28:33.198Z,100.00
2023-08-18T09:31:00.750Z,100.00
2023-08-18T09:33:34.103Z,100.00
2023-08-18T09:36:02.274Z,100.00
2023-08-18T09:38:38.601Z,99.81
2023-08-18T09:41:06.458Z,99.79
2023-08-18T09:43:34.192Z,100.00
2023-08-18T09:46:04.604Z,96.22
2023-08-18T09:48:35.975Z,95.20
2023-08-18T09:51:07.221Z,95.32
2023-08-18T09:53:35.184Z,98.73
2023-08-18T09:56:13.873Z,97.20
2023-08-18T09:59:02.454Z,99.38
2023-08-18T10:01:31.725Z,100.00
2023-08-18T10:04:01.286Z,100.00
2023-08-18T10:06:29.302Z,100.00
2023-08-18T10:08:58.561Z,100.00
2023-08-18T10:11:31.522Z,100.00
2023-08-18T10:14:07.278Z,100.00
2023-08-18T10:16:36.633Z,100.00
2023-08-18T10:19:04.446Z,100.00
2023-08-18T10:21:32.246Z,100.00
2023-08-18T10:24:03.512Z,100.00
2023-08-18T10:26:35.329Z,100.00
2023-08-18T10:29:26.295Z,100.00
2023-08-18T10:32:09.683Z,100.00
2023-08-18T10:34:38.550Z,96.55
2023-08-18T10:37:06.408Z,98.01
2023-08-18T10:39:37.618Z,97.75
2023-08-18T10:42:08.987Z,97.88
2023-08-18T10:44:36.654Z,97.18
2023-08-18T10:47:34.546Z,95.02
2023-08-18T10:50:06.751Z,95.11
2023-08-18T10:52:34.398Z,95.41
2023-08-18T10:55:02.196Z,93.75
2023-08-18T10:57:29.687Z,92.80
2023-08-18T10:59:57.205Z,91.61
2023-08-18T11:02:25.658Z,92.67
2023-08-18T11:04:53.164Z,90.21
2023-08-18T11:07:20.709Z,88.44
2023-08-18T11:09:48.548Z,88.15
2023-08-18T11:12:17.210Z,87.72
2023-08-18T11:14:44.680Z,84.60
2023-08-18T11:17:12.445Z,86.09
2023-08-18T11:19:39.873Z,86.25
2023-08-18T11:22:07.907Z,85.66
2023-08-18T11:24:38.639Z,85.76
2023-08-18T11:27:06.227Z,82.74
2023-08-18T11:29:33.894Z,83.92
2023-08-18T11:32:01.752Z,84.09
2023-08-18T11:34:29.564Z,86.50
2023-08-18T11:37:02.371Z,86.27
2023-08-18T11:39:31.252Z,86.49
2023-08-18T11:41:58.745Z,84.40
2023-08-18T11:44:27.058Z,85.97
2023-08-18T11:46:57.186Z,86.58
2023-08-18T11:49:26.104Z,88.36
2023-08-18T11:52:00.674Z,86.64
2023-08-18T11:54:34.511Z,85.07
2023-08-18T11:57:03.605Z,88.22
2023-08-18T11:59:31.457Z,86.59
2023-08-18T12:02:05.812Z,85.86
2023-08-18T12:04:33.751Z,84.34
2023-08-18T12:07:01.443Z,86.71
2023-08-18T12:09:28.981Z,86.74
2023-08-18T12:11:56.773Z,89.33
2023-08-18T12:14:25.537Z,87.76
2023-08-18T12:16:54.119Z,88.62
2023-08-18T12:19:22.690Z,89.16
2023-08-18T12:21:50.133Z,86.91
2023-08-18T12:24:17.701Z,87.26
2023-08-18T12:26:45.590Z,85.17
2023-08-18T12:29:13.189Z,86.89
2023-08-18T12:31:40.838Z,85.63
2023-08-18T12:34:08.673Z,85.51
2023-08-18T12:36:36.107Z,87.16
2023-08-18T12:39:04.413Z,87.36
2023-08-18T12:41:33.849Z,86.41
2023-08-18T12:44:01.355Z,87.07
2023-08-18T12:46:28.947Z,88.06
2023-08-18T12:48:56.813Z,87.56
2023-08-18T12:51:24.236Z,87.56
2023-08-18T12:53:51.822Z,88.10
2023-08-18T12:56:19.665Z,88.39
2023-08-18T12:58:47.082Z,88.92
2023-08-18T13:01:14.631Z,88.90
2023-08-18T13:03:43.113Z,88.95
2023-08-18T13:06:10.624Z,90.31
2023-08-18T13:08:38.122Z,90.15
2023-08-18T13:11:06.096Z,90.42
2023-08-18T13:13:33.556Z,92.63
2023-08-18T13:16:02.668Z,92.12
2023-08-18T13:18:30.451Z,91.76
2023-08-18T13:20:58.024Z,93.13
2023-08-18T13:23:25.647Z,91.07
2023-08-18T13:25:54.214Z,91.09
2023-08-18T13:28:21.682Z,89.85
2023-08-18T13:30:49.212Z,88.24
2023-08-18T13:33:16.901Z,85.42
2023-08-18T13:35:44.364Z,82.83
2023-08-18T13:38:11.841Z,83.18
2023-08-18T13:40:39.720Z,79.55
2023-08-18T13:43:07.200Z,79.05
2023-08-18T13:45:34.674Z,78.36
2023-08-18T13:48:03.098Z,76.33
2023-08-18T13:50:30.893Z,75.62
2023-08-18T13:52:58.848Z,76.56
2023-08-18T13:55:26.541Z,76.32
2023-08-18T13:57:54.836Z,74.03
2023-08-18T14:00:22.456Z,74.38
2023-08-18T14:02:50.259Z,73.58
2023-08-18T14:05:18.849Z,73.28
2023-08-18T14:07:46.522Z,75.04
2023-08-18T14:10:14.274Z,73.50
2023-08-18T14:12:47.636Z,75.39
2023-08-18T14:15:15.810Z,77.80
2023-08-18T14:17:49.231Z,74.88
2023-08-18T14:20:20.694Z,74.74
2023-08-18T14:22:52.474Z,76.62
2023-08-18T14:25:24.554Z,74.76
2023-08-18T14:27:53.052Z,74.15
2023-08-18T14:30:23.623Z,75.06
2023-08-18T14:32:51.495Z,73.99
2023-08-18T14:35:19.095Z,74.81
2023-08-18T14:37:46.865Z,75.36
2023-08-18T14:40:14.656Z,77.26
2023-08-18T14:42:42.118Z,79.46
2023-08-18T14:45:10.154Z,79.74
2023-08-18T14:47:37.795Z,82.40
2023-08-18T14:50:06.474Z,81.28
2023-08-18T14:52:34.274Z,83.78
2023-08-18T14:55:01.960Z,83.49
2023-08-18T14:57:29.475Z,84.03
2023-08-18T14:59:57.258Z,85.78
2023-08-18T15:02:24.831Z,83.59
2023-08-18T15:04:52.576Z,85.50
2023-08-18T15:07:20.268Z,83.76
2023-08-18T15:09:47.712Z,85.94
2023-08-18T15:12:15.226Z,84.33
2023-08-18T15:14:43.010Z,82.73
2023-08-18T15:17:10.580Z,83.53
2023-08-18T15:19:38.022Z,82.33
2023-08-18T15:22:05.750Z,84.21
2023-08-18T15:24:33.251Z,84.78
2023-08-18T15:27:00.678Z,85.16
2023-08-18T15:29:28.486Z,85.94
2023-08-18T15:31:55.935Z,87.20
2023-08-18T15:34:23.465Z,86.54
2023-08-18T15:36:51.139Z,87.67
2023-08-18T15:39:18.622Z,90.34
2023-08-18T15:41:46.094Z,89.78
2023-08-18T15:44:13.846Z,91.90
2023-08-18T15:46:41.438Z,91.77
2023-08-18T15:49:08.903Z,90.46
2023-08-18T15:51:36.600Z,91.01
2023-08-18T15:54:04.605Z,92.23
2023-08-18T15:56:32.090Z,92.62
2023-08-18T15:58:59.879Z,93.61
2023-08-18T16:01:27.441Z,92.07
2023-08-18T16:03:55.239Z,91.66
2023-08-18T16:06:22.907Z,92.89
2023-08-18T16:08:50.353Z,92.90
2023-08-18T16:11:19.494Z,93.88
2023-08-18T16:13:56.345Z,94.57
2023-08-18T16:16:36.240Z,94.34
2023-08-18T16:19:06.422Z,94.99
2023-08-18T16:21:33.976Z,95.47
2023-08-18T16:24:01.721Z,96.35
2023-08-18T16:26:29.128Z,95.86
2023-08-18T16:28:56.612Z,96.62
2023-08-18T16:31:24.425Z,98.12
2023-08-18T16:33:52.068Z,98.52
2023-08-18T16:36:19.513Z,99.03
2023-08-18T16:38:47.339Z,98.33
2023-08-18T16:41:14.809Z,99.61
2023-08-18T16:43:42.230Z,100.00
2023-08-18T16:46:10.015Z,99.83
2023-08-18T16:48:37.522Z,100.00
2023-08-18T16:51:05.093Z,100.00
2023-08-18T16:53:32.931Z,100.00
2023-08-18T16:56:00.434Z,100.00
2023-08-18T16:58:27.874Z,100.00
2023-08-18T17:00:55.797Z,100.00
2023-08-18T17:03:23.326Z,100.00
2023-08-18T17:05:50.918Z,100.00
2023-08-18T17:08:18.679Z,100.00
2023-08-18T17:10:46.227Z,100.00
2023-08-18T17:13:13.671Z,100.00
2023-08-18T17:15:41.451Z,100.00
2023-08-18T17:18:09.005Z,100.00
2023-08-18T17:20:41.621Z,100.00
2023-08-18T17:23:10.088Z,100.00
2023-08-18T17:25:39.114Z,100.00
2023-08-18T17:28:06.820Z,100.00
2023-08-18T17:30:34.689Z,100.00
2023-08-18T17:33:02.237Z,100.00
2023-08-18T17:35:30.774Z,100.00
2023-08-18T17:37:58.731Z,100.00
2023-08-18T17:40:26.356Z,100.00
2023-08-18T17:42:53.919Z,100.00
2023-08-18T17:45:21.933Z,100.00
2023-08-18T17:47:49.570Z,100.00
2023-08-18T17:50:17.160Z,100.00
2023-08-18T17:52:45.073Z,100.00
2023-08-18T17:55:12.608Z,100.00
2023-08-18T17:57:40.150Z,100.00
2023-08-18T18:00:08.493Z,100.00
2023-08-18T18:02:38.527Z,100.00
2023-08-18T18:05:06.504Z,100.00
2023-08-18T18:07:34.169Z,100.00
2023-08-18T18:10:02.174Z,100.00
2023-08-18T18:12:29.882Z,100.00
2023-08-18T18:14:57.366Z,100.00
2023-08-18T18:17:25.327Z,100.00
2023-08-18T18:19:53.098Z,100.00
2023-08-18T18:22:20.737Z,100.00
2023-08-18T18:24:48.587Z,100.00
2023-08-18T18:27:16.189Z,100.00
2023-08-18T18:29:43.829Z,100.00
2023-08-18T18:32:11.850Z,100.00
2023-08-18T18:34:39.833Z,100.00
2023-08-18T18:37:07.748Z,100.00
2023-08-18T18:39:35.457Z,100.00
2023-08-18T18:42:05.559Z,100.00
2023-08-18T18:44:36.332Z,100.00
2023-08-18T18:47:05.055Z,100.00
2023-08-18T18:49:32.560Z,100.00
2023-08-18T18:52:00.127Z,100.00
2023-08-18T18:54:28.021Z,100.00
2023-08-18T18:56:55.719Z,100.00
2023-08-18T18:59:24.033Z,100.00
2023-08-18T19:01:51.856Z,100.00
2023-08-18T19:04:19.490Z,100.00
2023-08-18T19:06:47.078Z,100.00
2023-08-18T19:09:16.476Z,100.00
2023-08-18T19:11:44.140Z,100.00
2023-08-18T19:14:11.852Z,100.00
2023-08-18T19:16:39.699Z,100.00
2023-08-18T19:19:07.148Z,100.00
2023-08-18T19:21:34.631Z,100.00
2023-08-18T19:24:04.053Z,100.00
2023-08-18T19:26:31.590Z,100.00
2023-08-18T19:28:59.243Z,100.00
2023-08-18T19:31:26.964Z,100.00
2023-08-18T19:33:54.388Z,100.00
2023-08-18T19:36:21.971Z,100.00
2023-08-18T19:38:49.680Z,100.00
2023-08-18T19:41:17.620Z,100.00
2023-08-18T19:43:45.252Z,100.00
2023-08-18T19:46:13.098Z,100.00
2023-08-18T19:48:40.661Z,100.00
2023-08-18T19:51:08.099Z,100.00
2023-08-18T19:53:35.839Z,100.00
2023-08-18T19:56:04.246Z,100.00
2023-08-18T19:58:31.832Z,100.00
2023-08-18T20:01:01.556Z,100.00
2023-08-18T20:03:30.300Z,100.00
2023-08-18T20:06:04.679Z,100.00
2023-08-18T20:08:32.491Z,100.00
2023-08-18T20:10:59.974Z,100.00
2023-08-18T20:13:27.686Z,100.00
2023-08-18T20:15:55.588Z,100.00
2023-08-18T20:18:23.069Z,100.00
2023-08-18T20:20:50.850Z,100.00
2023-08-18T20:23:18.596Z,100.00
2023-08-18T20:25:46.083Z,100.00
2023-08-18T20:28:13.751Z,100.00
2023-08-18T20:30:45.447Z,100.00
2023-08-18T20:33:13.398Z,100.00
2023-08-18T20:35:41.157Z,100.00
2023-08-18T20:38:08.652Z,100.00
2023-08-18T20:40:36.185Z,100.00
2023-08-18T20:43:04.303Z,100.00
2023-08-18T20:45:31.821Z,100.00
2023-08-18T20:47:59.374Z,100.00
2023-08-18T20:50:27.280Z,100.00
2023-08-18T20:52:55.719Z,100.00
2023-08-18T20:55:24.147Z,100.00
2023-08-18T20:57:52.843Z,100.00
2023-08-18T21:00:20.322Z,100.00
2023-08-18T21:02:47.912Z,100.00
2023-08-18T21:05:15.678Z,100.00
2023-08-18T21:07:43.164Z,100.00
2023-08-18T21:10:12.743Z,100.00
2023-08-18T21:12:44.309Z,100.00
2023-08-18T21:15:12.538Z,100.00
2023-08-18T21:17:40.450Z,100.00
2023-08-18T21:20:09.083Z,100.00
2023-08-18T21:22:41.424Z,100.00
2023-08-18T21:25:09.465Z,100.00
2023-08-18T21:27:36.938Z,100.00
2023-08-18T21:30:05.344Z,100.00
2023-08-18T21:32:33.334Z,100.00
2023-08-18T21:35:01.096Z,100.00
2023-08-18T21:37:28.500Z,100.00
2023-08-18T21:39:57.011Z,100.00
2023-08-18T21:42:24.418Z,100.00
2023-08-18T21:44:51.975Z,100.00
2023-08-18T21:47:19.761Z,100.00
2023-08-18T21:49:47.200Z,100.00
2023-08-18T21:52:14.690Z,100.00
2023-08-18T21:54:42.723Z,100.00
2023-08-18T21:57:10.372Z,100.00
2023-08-18T21:59:41.169Z,100.00
2023-08-18T22:02:09.458Z,100.00
2023-08-18T22:04:37.319Z,100.00
2023-08-18T22:07:05.341Z,100.00
2023-08-18T22:09:32.791Z,100.00
2023-08-18T22:12:00.578Z,100.00
2023-08-18T22:14:28.080Z,100.00
2023-08-18T22:16:55.576Z,100.00
2023-08-18T22:19:23.344Z,100.00
2023-08-18T22:21:50.883Z,100.00
2023-08-18T22:24:18.327Z,100.00
2023-08-18T22:26:46.191Z,100.00
2023-08-18T22:29:13.738Z,100.00
2023-08-18T22:31:41.389Z,100.00
2023-08-18T22:34:09.205Z,100.00
2023-08-18T22:36:36.875Z,100.00
2023-08-18T22:39:04.530Z,100.00
2023-08-18T22:41:32.423Z,100.00
2023-08-18T22:43:59.931Z,100.00
2023-08-18T22:46:28.806Z,100.00
2023-08-18T22:48:56.769Z,100.00
2023-08-18T22:51:24.202Z,100.00
2023-08-18T22:53:52.022Z,100.00
2023-08-18T22:56:20.215Z,100.00
2023-08-18T22:58:47.733Z,100.00
2023-08-18T23:01:15.404Z,100.00
2023-08-18T23:03:43.265Z,100.00
2023-08-18T23:06:10.791Z,100.00
2023-08-18T23:08:38.284Z,100.00
2023-08-18T23:11:06.083Z,100.00
2023-08-18T23:13:33.569Z,100.00
2023-08-18T23:16:01.972Z,100.00
2023-08-18T23:18:29.709Z,100.00
2023-08-18T23:20:57.113Z,100.00
2023-08-18T23:23:24.774Z,100.00
2023-08-18T23:25:53.240Z,100.00
2023-08-18T23:28:20.733Z,100.00
2023-08-18T23:30:48.303Z,100.00
2023-08-18T23:33:16.071Z,100.00
2023-08-18T23:35:43.676Z,100.00
2023-08-18T23:38:11.283Z,100.00
2023-08-18T23:40:41.351Z,100.00
2023-08-18T23:43:09.691Z,100.00
2023-08-18T23:45:37.143Z,100.00
2023-08-18T23:48:05.449Z,100.00
2023-08-18T23:50:33.194Z,100.00
2023-08-18T23:53:01.235Z,100.00
2023-08-18T23:55:29.036Z,100.00
2023-08-18T23:57:56.826Z,100.00
